메인 페이지
METAR-TAF:

METAR-TAF

공항 :

석유플랫폼

Ekofisk, 노르웨이

위도: 56-33N, 경도: 003-15E, 고도: 3m

현재 날씨관측

예보는 38분 전, 15:50시(UTC)에 발표되었습니다.
남서8kt
온도 13°C
습도 82%
기압 1018 hPa
시정 10km 이상
고도 1000ft 상공 구름 조금

METAR: ENLE 201550Z 23008KT 9999 FEW010 13/10 Q1018 W13/S3

시각: 18:28 (16:28 UTC)

예보

예보는 2 시간 28분 전, 14:00시(UTC)에 발표되었습니다.
예보 대상 시간: 20일 15시부터 20일 24시까지 (UTC)
남서8kt
시정 10km 이상
고도 1000ft 상공 구름 조금

TAF: ENLE 201400Z 2015/2024 23008KT 9999 FEW010

4,000개 이상의 공항 관측 자료 및 예보 (METAR 및 TAF 보고).

지도상에서 검색 가능한 기상관측소가 노란 점과 빨간 점으로 표시되어 있습니다.

기상관측소 명을 보려면 표시 위로 마우스를 이동하세요.

날씨 관측과 예보를 보려면 클릭하세요.

지도 변경 : 확대하려면 엑스 표시가 있는 녹색 버튼, 축소하려면 빼기 표시가 있는 녹색 버튼, 다음 페이지의 지도를 보려면 녹색 화살표를 클릭하세요.


METAR-TAF: